Time;durP1;ratioP1;P1;durP2;ratioP2;P2;SDS_P1;SDS_P2;PMS_P1;PMS_P2;Temp;Humidity;BMP_temperature;BMP_pressure;BME280_temperature;BME280_humidity;BME280_pressure;Samples;Min_cycle;Max_cycle;Signal;HPM_P1;HPM_P2
2022/05/23 00:01:56;;;;;;;0.50;0.50;;;;;;;16.34;89.36;94896.69;5114761;28;20504;-56
2022/05/23 00:04:25;;;;;;;0.40;0.30;;;;;;;16.19;89.30;94896.41;5115273;28;20459;-56
2022/05/23 00:06:56;;;;;;;0.40;0.30;;;;;;;15.69;91.10;94802.50;5114835;28;20435;-56
2022/05/23 00:09:25;;;;;;;0.83;0.83;;;;;;;16.17;91.46;94894.03;5114839;28;20458;-57
2022/05/23 00:11:55;;;;;;;0.40;0.30;;;;;;;15.80;91.88;94854.53;5115018;28;20427;-57
2022/05/23 00:14:23;;;;;;;0.40;0.20;;;;;;;15.69;92.18;94831.88;5115035;28;20518;-57
2022/05/23 00:16:52;;;;;;;0.40;0.20;;;;;;;16.02;91.91;94891.03;5113555;28;20499;-57
2022/05/23 00:19:20;;;;;;;0.40;0.30;;;;;;;15.80;92.42;94854.53;5114577;28;20447;-57
2022/05/23 00:21:48;;;;;;;0.40;0.20;;;;;;;16.05;91.70;94893.88;5114423;28;20503;-57
2022/05/23 00:24:18;;;;;;;0.40;0.30;;;;;;;15.72;90.98;94853.44;5114655;28;20423;-57
2022/05/23 00:26:50;;;;;;;1.10;0.40;;;;;;;15.46;90.78;94809.06;5114924;28;20453;-57
2022/05/23 00:29:20;;;;;;;0.40;0.20;;;;;;;15.83;90.87;94886.78;5114504;28;21082;-57
2022/05/23 00:37:23;;;;;;;0.40;0.30;;;;;;;15.42;91.78;94832.91;5114670;28;20789;-57
2022/05/23 00:39:51;;;;;;;0.60;0.30;;;;;;;15.63;92.92;94863.31;5114326;28;20427;-56
2022/05/23 00:45:16;;;;;;;0.40;0.20;;;;;;;15.82;93.52;94900.44;5113597;28;20454;-56
2022/05/23 00:47:46;;;;;;;0.40;0.20;;;;;;;15.53;92.78;94882.31;5114413;28;20463;-56
2022/05/23 00:50:16;;;;;;;0.40;0.20;;;;;;;15.75;92.93;94900.09;5116891;28;20419;-59
2022/05/23 00:52:47;;;;;;;0.50;0.30;;;;;;;15.73;92.49;94903.09;5114081;28;20482;-57
2022/05/23 00:55:22;;;;;;;0.60;0.60;;;;;;;15.21;92.99;94821.22;5113625;28;20463;-57
2022/05/23 00:57:53;;;;;;;0.40;0.20;;;;;;;15.44;91.63;94864.63;5113277;28;20470;-57
2022/05/23 01:00:24;;;;;;;0.43;0.30;;;;;;;15.44;92.76;94878.00;5113953;28;20824;-57
2022/05/23 01:02:56;;;;;;;0.40;0.30;;;;;;;15.24;94.33;94863.31;5113465;28;20459;-56
2022/05/23 01:05:25;;;;;;;0.40;0.30;;;;;;;15.44;97.13;94896.69;5113924;28;20463;-56
2022/05/23 01:07:53;;;;;;;0.50;0.43;;;;;;;15.32;98.92;94881.25;5113023;28;20435;-57
2022/05/23 01:10:22;;;;;;;0.40;0.20;;;;;;;15.39;99.36;94902.97;5113165;28;20431;-57
2022/05/23 01:12:50;;;;;;;0.47;0.30;;;;;;;14.82;100.00;94827.38;5113699;28;20427;-57
2022/05/23 01:15:22;;;;;;;0.50;0.30;;;;;;;15.21;100.00;94880.75;5113146;28;20507;-56
2022/05/23 01:17:52;;;;;;;0.40;0.27;;;;;;;15.38;98.44;94905.94;5113085;28;20483;-56
2022/05/23 01:20:21;;;;;;;0.40;0.30;;;;;;;15.37;96.66;94897.16;5113304;28;20460;-56
2022/05/23 01:22:56;;;;;;;0.50;0.47;;;;;;;15.36;97.33;94895.56;5113057;28;20495;-57
2022/05/23 01:25:30;;;;;;;0.40;0.20;;;;;;;15.28;97.71;94894.44;5113148;28;20506;-56
2022/05/23 01:27:59;;;;;;;0.40;0.20;;;;;;;15.28;97.95;94897.09;5113218;28;20962;-56
2022/05/23 01:30:29;;;;;;;0.50;0.30;;;;;;;15.25;98.48;94896.94;5113448;28;20451;-56
2022/05/23 01:32:57;;;;;;;0.40;0.30;;;;;;;14.87;98.11;94842.47;5112925;28;20519;-56
2022/05/23 01:35:26;;;;;;;0.43;0.30;;;;;;;14.88;99.77;94849.34;5113251;28;20886;-57
2022/05/23 01:37:54;;;;;;;0.40;0.20;;;;;;;15.12;99.44;94887.16;5112952;28;20439;-57
2022/05/23 01:40:23;;;;;;;0.40;0.40;;;;;;;15.02;100.00;94900.75;5112774;28;20515;-57
2022/05/23 01:42:53;;;;;;;0.50;0.50;;;;;;;15.04;100.00;94899.38;5112701;28;20491;-57
2022/05/23 01:45:24;;;;;;;0.40;0.20;;;;;;;14.63;100.00;94878.25;5113025;28;20439;-56
2022/05/23 01:47:54;;;;;;;0.40;0.30;;;;;;;15.10;99.54;94910.69;5112742;28;20427;-57
2022/05/23 01:50:23;;;;;;;0.40;0.30;;;;;;;15.03;100.00;94905.78;5112611;28;20470;-57
2022/05/23 01:52:51;;;;;;;0.40;0.30;;;;;;;15.00;100.00;94895.72;5112649;28;20952;-57
2022/05/23 01:55:21;;;;;;;0.40;0.20;;;;;;;15.01;100.00;94913.31;5112510;28;20436;-57
2022/05/23 01:57:49;;;;;;;0.40;0.20;;;;;;;14.97;100.00;94907.03;5113045;28;20432;-58
2022/05/23 02:03:06;;;;;;;0.50;0.40;;;;;;;13.84;100.00;94730.66;5112380;28;20528;-57
2022/05/23 02:05:35;;;;;;;0.40;0.30;;;;;;;14.99;100.00;94894.16;5112287;28;20880;-57
2022/05/23 02:08:03;;;;;;;0.40;0.20;;;;;;;14.56;100.00;94821.13;5112310;28;20916;-57
2022/05/23 02:10:32;;;;;;;0.40;0.20;;;;;;;14.55;100.00;94844.31;5112421;28;20455;-57
2022/05/23 02:13:02;;;;;;;0.40;0.30;;;;;;;14.82;100.00;94891.41;5112232;28;20518;-57
2022/05/23 02:15:33;;;;;;;0.40;0.20;;;;;;;14.82;100.00;94883.41;5112090;28;20491;-57
2022/05/23 02:18:02;;;;;;;0.40;0.30;;;;;;;14.75;100.00;94884.94;5112152;28;20433;-57
2022/05/23 02:20:31;;;;;;;0.60;0.43;;;;;;;14.72;100.00;94883.66;5112079;28;20463;-56
2022/05/23 02:22:59;;;;;;;0.40;0.30;;;;;;;14.75;100.00;94885.69;5111188;28;20553;-56
2022/05/23 02:25:28;;;;;;;0.57;0.30;;;;;;;14.61;100.00;94869.78;5112206;28;20621;-57
2022/05/23 02:27:57;;;;;;;0.50;0.30;;;;;;;14.49;100.00;94884.75;5111837;28;20497;-57
2022/05/23 02:30:25;;;;;;;0.40;0.20;;;;;;;9.94;100.00;94217.75;5112116;28;20484;-56
2022/05/23 02:32:55;;;;;;;0.40;0.30;;;;;;;14.53;100.00;94894.50;5111959;28;20948;-57
2022/05/23 02:35:23;;;;;;;0.40;0.30;;;;;;;14.60;100.00;94894.06;5111963;28;20870;-57
2022/05/23 02:37:52;;;;;;;0.40;0.30;;;;;;;11.30;100.00;94445.06;5112160;28;20423;-57
2022/05/23 02:40:22;;;;;;;0.40;0.30;;;;;;;14.52;100.00;94903.59;5111872;28;20812;-57
2022/05/23 02:42:50;;;;;;;0.50;0.30;;;;;;;14.57;100.00;94903.47;5111421;28;20894;-56
2022/05/23 02:45:19;;;;;;;0.50;0.40;;;;;;;14.10;100.00;94815.28;5112105;28;20435;-57
2022/05/23 02:47:47;;;;;;;0.40;0.20;;;;;;;14.62;100.00;94898.00;5111781;28;20493;-56
2022/05/23 02:50:17;;;;;;;0.53;0.40;;;;;;;14.60;100.00;94894.06;5112156;28;20872;-56
2022/05/23 02:52:46;;;;;;;0.40;0.20;;;;;;;14.54;100.00;94897.97;5111739;28;20912;-57
2022/05/23 02:55:14;;;;;;;0.40;0.20;;;;;;;14.35;100.00;94900.00;5111721;28;20431;-56
2022/05/23 02:57:43;;;;;;;1.27;1.03;;;;;;;14.29;100.00;94863.88;5111989;28;20439;-56
2022/05/23 03:00:12;;;;;;;1.37;0.43;;;;;;;14.42;100.00;94900.41;5112139;28;20459;-56
2022/05/23 03:05:27;;;;;;;0.40;0.20;;;;;;;14.30;100.00;94892.09;5111614;28;20918;-57
2022/05/23 03:07:56;;;;;;;0.40;0.27;;;;;;;14.23;100.00;94878.41;5111807;28;20574;-56
2022/05/23 03:10:24;;;;;;;0.60;0.30;;;;;;;14.41;100.00;94880.94;5111161;28;20463;-56
2022/05/23 03:12:53;;;;;;;0.40;0.30;;;;;;;14.37;100.00;94866.63;5111585;28;20419;-56
2022/05/23 03:15:22;;;;;;;0.53;0.53;;;;;;;14.50;100.00;94883.66;5111787;28;20472;-56
2022/05/23 03:17:51;;;;;;;0.40;0.20;;;;;;;14.33;100.00;94859.53;5111664;28;20510;-56
2022/05/23 03:20:19;;;;;;;0.40;0.30;;;;;;;14.43;100.00;94883.28;5113093;28;20477;-56
2022/05/23 03:28:21;;;;;;;0.40;0.20;;;;;;;14.44;100.00;94887.56;5114004;28;20504;-56
2022/05/23 03:30:50;;;;;;;1.60;0.40;;;;;;;14.41;100.00;94888.16;5114401;28;20423;-56
2022/05/23 03:33:19;;;;;;;0.40;0.20;;;;;;;14.37;100.00;94881.88;5114430;28;20435;-56
2022/05/23 03:35:48;;;;;;;0.60;0.33;;;;;;;14.01;100.00;94847.22;5114478;28;20427;-56
2022/05/23 03:38:18;;;;;;;0.40;0.30;;;;;;;14.19;100.00;94914.78;5114943;28;20484;-56
2022/05/23 03:40:46;;;;;;;0.50;0.40;;;;;;;14.01;100.00;94903.94;5115256;28;20432;-56
2022/05/23 03:43:15;;;;;;;0.50;0.33;;;;;;;13.47;100.00;94805.53;5115099;28;20554;-56
2022/05/23 03:45:44;;;;;;;0.40;0.30;;;;;;;14.12;100.00;94901.03;5115223;28;20877;-56
2022/05/23 03:48:12;;;;;;;0.50;0.40;;;;;;;14.26;100.00;94901.81;5115156;28;20492;-56
2022/05/23 03:50:42;;;;;;;0.40;0.20;;;;;;;14.24;100.00;94896.00;5115144;28;20518;-56
2022/05/23 03:53:11;;;;;;;0.40;0.30;;;;;;;13.68;100.00;94827.97;5114978;28;20431;-56
2022/05/23 03:55:40;;;;;;;0.40;0.30;;;;;;;14.33;100.00;94915.53;5115224;28;20924;-57
2022/05/23 03:58:09;;;;;;;0.40;0.30;;;;;;;14.04;100.00;94854.59;5115285;28;20470;-56
2022/05/23 04:00:43;;;;;;;0.40;0.30;;;;;;;14.46;100.00;94909.38;5114879;28;20963;-55
2022/05/23 04:03:12;;;;;;;0.40;0.20;;;;;;;14.50;100.00;94910.31;5114891;28;20432;-56
2022/05/23 04:05:41;;;;;;;0.40;0.30;;;;;;;14.58;100.00;94907.72;5115509;28;20424;-56
2022/05/23 04:08:10;;;;;;;0.60;0.40;;;;;;;14.64;100.00;94916.41;5115032;28;20988;-56
2022/05/23 04:10:40;;;;;;;0.60;0.50;;;;;;;14.68;100.00;94904.00;5114821;28;20423;-56
2022/05/23 04:13:09;;;;;;;0.50;0.40;;;;;;;14.77;100.00;94912.88;5114850;28;20981;-57
2022/05/23 04:15:40;;;;;;;0.40;0.20;;;;;;;14.58;100.00;94904.25;5114772;28;20534;-56
2022/05/23 04:18:08;;;;;;;0.40;0.30;;;;;;;14.80;100.00;94903.47;5114911;28;20431;-56
2022/05/23 04:20:37;;;;;;;0.40;0.30;;;;;;;14.96;100.00;94900.09;5114418;28;20889;-55
2022/05/23 04:23:08;;;;;;;0.40;0.30;;;;;;;14.49;100.00;94834.09;5114893;28;20420;-55
2022/05/23 04:25:41;;;;;;;0.60;0.50;;;;;;;14.99;100.00;94858.66;5114269;28;20553;-56
2022/05/23 04:28:10;;;;;;;0.40;0.30;;;;;;;15.34;100.00;94894.28;5114445;28;20507;-56
2022/05/23 04:30:39;;;;;;;0.40;0.30;;;;;;;15.61;100.00;94896.78;5114641;28;20551;-56
2022/05/23 04:35:55;;;;;;;0.40;0.30;;;;;;;14.65;100.00;94727.81;5114509;28;20488;-56
2022/05/23 04:38:24;;;;;;;1.07;0.80;;;;;;;15.57;100.00;94882.47;5114512;28;20511;-57
2022/05/23 04:40:54;;;;;;;0.40;0.30;;;;;;;15.45;100.00;94892.94;5114483;28;20762;-56
2022/05/23 04:43:22;;;;;;;0.50;0.37;;;;;;;14.41;100.00;94850.81;5114267;28;21102;-57
2022/05/23 04:45:51;;;;;;;0.40;0.40;;;;;;;13.78;100.00;94785.16;5114475;28;20553;-57
2022/05/23 04:51:05;;;;;;;0.40;0.30;;;;;;;14.39;100.00;94879.69;5113936;28;20412;-57
2022/05/23 04:53:34;;;;;;;0.83;0.83;;;;;;;14.70;100.00;94883.16;5114298;28;20461;-57
2022/05/23 04:56:04;;;;;;;0.40;0.20;;;;;;;15.24;100.00;94887.34;5113932;28;20498;-57
2022/05/23 04:58:32;;;;;;;0.40;0.30;;;;;;;14.16;100.00;94801.56;5113690;28;20434;-56
2022/05/23 05:01:01;;;;;;;0.40;0.40;;;;;;;14.69;100.00;94888.81;5113552;28;20427;-57
2022/05/23 05:03:30;;;;;;;0.53;0.47;;;;;;;14.68;100.00;94898.69;5114068;28;20427;-56
2022/05/23 05:05:58;;;;;;;0.50;0.30;;;;;;;14.32;100.00;94858.75;5114449;28;20498;-56
2022/05/23 05:08:28;;;;;;;0.40;0.30;;;;;;;14.53;100.00;94869.72;5113926;28;20498;-56
2022/05/23 05:10:57;;;;;;;0.40;0.20;;;;;;;15.01;100.00;94832.47;5112979;28;20493;-57
2022/05/23 05:13:28;;;;;;;0.60;0.47;;;;;;;15.70;100.00;94887.69;5112896;28;20486;-57
2022/05/23 05:16:00;;;;;;;0.70;0.40;;;;;;;15.98;100.00;94906.13;5113519;28;20909;-57
2022/05/23 05:18:28;;;;;;;0.40;0.30;;;;;;;16.27;100.00;94906.28;5113713;28;20435;-57
2022/05/23 05:20:56;;;;;;;0.43;0.33;;;;;;;16.23;100.00;94895.47;5113484;28;20516;-58
2022/05/23 05:23:25;;;;;;;0.50;0.43;;;;;;;16.36;100.00;94899.88;5113414;28;20439;-58
2022/05/23 05:25:54;;;;;;;0.60;0.60;;;;;;;16.68;99.82;94895.13;5113744;28;20546;-58
2022/05/23 05:28:22;;;;;;;0.40;0.40;;;;;;;16.65;96.64;94866.31;5113295;28;20483;-58
2022/05/23 05:31:01;;;;;;;0.40;0.30;;;;;;;17.28;93.89;94903.78;5113603;28;20431;-58
2022/05/23 05:33:36;;;;;;;0.70;0.70;;;;;;;17.41;93.56;94889.41;5112802;28;20944;-58
2022/05/23 05:36:10;;;;;;;0.50;0.30;;;;;;;17.66;92.63;94891.19;5113234;28;20549;-58
2022/05/23 05:38:43;;;;;;;0.83;0.83;;;;;;;16.59;94.62;94782.00;5113106;28;20945;-58
2022/05/23 05:41:17;;;;;;;0.40;0.30;;;;;;;17.88;91.38;94895.50;5113165;28;20971;-58
2022/05/23 05:43:49;;;;;;;0.40;0.30;;;;;;;18.22;88.20;94889.91;5112558;28;20431;-58
2022/05/23 05:46:26;;;;;;;0.53;0.53;;;;;;;18.02;84.40;94887.19;5112962;28;20475;-58
2022/05/23 05:48:58;;;;;;;0.40;0.30;;;;;;;18.44;83.27;94883.44;5112927;28;20431;-59
2022/05/23 05:51:27;;;;;;;0.40;0.30;;;;;;;19.14;80.17;94887.03;5112515;28;20510;-58
2022/05/23 05:53:55;;;;;;;0.50;0.47;;;;;;;19.10;76.79;94886.13;5112786;28;20917;-58
2022/05/23 05:56:26;;;;;;;7.90;0.50;;;;;;;19.20;76.07;94881.09;5113092;28;20514;-58
2022/05/23 05:58:54;;;;;;;0.50;0.40;;;;;;;19.51;71.03;94873.31;5112496;28;20908;-57
2022/05/23 06:01:24;;;;;;;0.50;0.30;;;;;;;20.24;66.64;94870.56;5112971;28;20476;-57
2022/05/23 06:03:53;;;;;;;2.33;2.20;;;;;;;20.73;64.14;94877.38;5112549;28;20455;-57
2022/05/23 06:11:59;;;;;;;0.50;0.40;;;;;;;19.78;61.19;94863.03;5112917;28;20843;-57
2022/05/23 06:14:27;;;;;;;0.70;0.60;;;;;;;20.26;62.57;94866.41;5112468;28;20474;-57
2022/05/23 06:16:57;;;;;;;0.50;0.30;;;;;;;21.20;57.34;94877.47;5112499;28;20471;-57
2022/05/23 06:19:26;;;;;;;0.70;0.30;;;;;;;21.08;58.92;94871.38;5112286;28;20427;-56
2022/05/23 06:21:54;;;;;;;0.50;0.40;;;;;;;22.01;54.96;94870.59;5112680;28;20883;-56
2022/05/23 06:24:23;;;;;;;1.00;0.90;;;;;;;21.66;52.95;94853.53;5112574;28;20879;-56
2022/05/23 06:26:51;;;;;;;0.60;0.40;;;;;;;21.73;54.05;94854.50;5112198;28;20454;-56
2022/05/23 06:29:19;;;;;;;0.87;0.60;;;;;;;21.14;51.58;94794.53;5111980;28;20481;-58
2022/05/23 06:31:48;;;;;;;4.63;0.40;;;;;;;22.28;51.75;94856.16;5112191;28;20459;-57
2022/05/23 06:34:17;;;;;;;0.67;0.60;;;;;;;22.94;48.28;94842.44;5112105;28;20479;-58
2022/05/23 06:36:46;;;;;;;0.40;0.30;;;;;;;22.77;46.31;94832.06;5112043;28;20416;-55
2022/05/23 06:39:14;;;;;;;0.50;0.30;;;;;;;22.75;47.94;94818.91;5112013;28;20484;-57
2022/05/23 06:41:43;;;;;;;1.23;0.70;;;;;;;23.56;47.31;94818.75;5112370;28;20490;-55
2022/05/23 06:44:11;;;;;;;0.40;0.30;;;;;;;23.42;46.88;94818.56;5111957;28;20508;-55
2022/05/23 06:46:40;;;;;;;0.50;0.37;;;;;;;23.93;44.33;94828.59;5112041;28;20545;-54
2022/05/23 06:49:08;;;;;;;0.40;0.30;;;;;;;23.51;43.78;94784.69;5111762;28;20994;-55
2022/05/23 06:51:49;;;;;;;0.50;0.30;;;;;;;24.73;43.74;94824.63;5112284;28;20443;-55
2022/05/23 06:54:18;;;;;;;0.40;0.20;;;;;;;24.79;42.10;94816.97;5112182;28;20426;-55
2022/05/23 06:56:48;;;;;;;15.83;0.50;;;;;;;23.86;43.05;94763.53;5115930;28;20937;-55
2022/05/23 06:59:17;;;;;;;0.50;0.50;;;;;;;24.53;44.54;94815.09;5116004;28;20431;-56
2022/05/23 07:01:47;;;;;;;0.50;0.30;;;;;;;24.85;44.16;94826.31;5115835;28;20944;-57
2022/05/23 07:04:18;;;;;;;0.40;0.40;;;;;;;23.85;44.53;94826.97;5115998;28;21000;-57
2022/05/23 07:12:28;;;;;;;0.40;0.40;;;;;;;24.02;44.93;94831.84;5115937;28;20482;-57
2022/05/23 07:14:57;;;;;;;0.50;0.40;;;;;;;24.26;43.06;94775.69;5115907;28;20455;-56
2022/05/23 07:17:26;;;;;;;0.83;0.40;;;;;;;24.45;41.24;94805.31;5116133;28;20895;-56
2022/05/23 07:19:56;;;;;;;0.50;0.50;;;;;;;25.07;41.41;94820.75;5116058;28;20457;-56
2022/05/23 07:22:26;;;;;;;1.53;0.60;;;;;;;25.20;41.13;94821.25;5115799;28;20862;-57
2022/05/23 07:24:54;;;;;;;0.50;0.40;;;;;;;24.37;40.79;94798.25;5115936;28;20435;-58
2022/05/23 07:27:25;;;;;;;0.97;0.50;;;;;;;24.36;42.07;94794.75;5115596;28;20427;-57
2022/05/23 07:29:54;;;;;;;0.43;0.40;;;;;;;24.78;42.23;94802.63;5115844;28;20488;-57
2022/05/23 07:32:23;;;;;;;0.50;0.50;;;;;;;25.03;42.29;94803.66;5115895;28;20436;-56
2022/05/23 07:34:52;;;;;;;0.50;0.40;;;;;;;24.05;42.65;94803.25;5115550;28;20458;-56
2022/05/23 07:37:20;;;;;;;0.60;0.60;;;;;;;23.86;43.33;94785.19;5115654;28;20973;-56
2022/05/23 07:39:50;;;;;;;0.40;0.30;;;;;;;23.98;43.58;94801.22;5115493;28;20501;-55
2022/05/23 07:42:19;;;;;;;0.40;0.40;;;;;;;23.60;45.43;94815.00;5114619;28;20427;-55
2022/05/23 07:44:48;;;;;;;0.40;0.37;;;;;;;23.39;47.50;94814.66;5115338;28;20428;-54
2022/05/23 07:47:16;;;;;;;0.40;0.20;;;;;;;23.46;45.33;94803.94;5115219;28;20550;-54
2022/05/23 07:49:47;;;;;;;0.40;0.30;;;;;;;23.42;47.27;94803.09;5115610;28;20431;-54
2022/05/23 07:52:15;;;;;;;0.40;0.30;;;;;;;23.11;46.14;94777.06;5115249;28;20554;-54
2022/05/23 08:00:32;;;;;;;0.90;0.50;;;;;;;22.77;48.35;94815.84;5115040;28;20975;-54
2022/05/23 08:03:03;;;;;;;0.40;0.30;;;;;;;22.71;50.08;94788.34;5114950;28;20488;-54
2022/05/23 08:05:32;;;;;;;0.40;0.20;;;;;;;22.56;49.99;94826.22;5114597;28;21046;-54
2022/05/23 08:08:01;;;;;;;0.80;0.53;;;;;;;22.58;49.53;94813.94;5114800;28;20439;-54
2022/05/23 08:10:29;;;;;;;0.73;0.73;;;;;;;22.47;50.39;94802.13;5115121;28;20510;-54
2022/05/23 08:12:59;;;;;;;0.73;0.50;;;;;;;22.77;49.72;94815.09;5114594;28;20427;-55
2022/05/23 08:15:29;;;;;;;0.40;0.30;;;;;;;23.07;48.62;94805.97;5114911;27;20515;-55
2022/05/23 08:17:58;;;;;;;0.50;0.30;;;;;;;23.48;47.95;94804.34;5115003;28;20459;-55
2022/05/23 08:20:26;;;;;;;0.40;0.20;;;;;;;23.52;48.02;94767.31;5115055;27;20784;-55
2022/05/23 08:22:57;;;;;;;0.40;0.37;;;;;;;24.01;49.49;94784.25;5114501;28;20478;-55
2022/05/23 08:25:26;;;;;;;0.40;0.40;;;;;;;24.17;47.86;94784.09;5114463;28;20524;-56
2022/05/23 08:27:55;;;;;;;0.67;0.40;;;;;;;24.23;47.03;94785.34;5114565;28;20463;-56
2022/05/23 08:30:25;;;;;;;3.50;0.30;;;;;;;24.08;46.99;94793.66;5114848;27;20427;-56
2022/05/23 08:32:54;;;;;;;0.80;0.53;;;;;;;23.60;48.26;94763.59;5114698;28;20435;-56
2022/05/23 08:35:24;;;;;;;0.50;0.40;;;;;;;23.79;47.14;94778.91;5114388;28;20797;-56
2022/05/23 08:37:55;;;;;;;0.40;0.30;;;;;;;23.84;46.49;94776.66;5114232;28;20424;-57
2022/05/23 08:40:36;;;;;;;0.90;0.83;;;;;;;24.35;47.03;94774.25;5114391;28;20518;-57
2022/05/23 08:43:06;;;;;;;0.40;0.30;;;;;;;24.65;44.64;94771.50;5114481;28;20510;-58
2022/05/23 08:45:41;;;;;;;0.40;0.33;;;;;;;24.85;44.91;94772.88;5114436;28;20479;-58
2022/05/23 08:48:19;;;;;;;0.40;0.30;;;;;;;24.69;45.26;94780.47;5114395;28;20433;-58
2022/05/23 08:50:59;;;;;;;0.60;0.60;;;;;;;24.75;45.63;94742.94;5114190;28;20427;-59
2022/05/23 08:53:32;;;;;;;0.80;0.80;;;;;;;24.78;43.58;94726.75;5114165;28;20435;-59
2022/05/23 08:56:05;;;;;;;0.40;0.30;;;;;;;25.01;44.22;94773.44;5114354;28;20419;-58
2022/05/23 08:58:37;;;;;;;0.50;0.30;;;;;;;24.94;45.42;94778.00;5113967;28;20450;-58
2022/05/23 09:01:12;;;;;;;0.40;0.30;;;;;;;24.68;46.45;94780.81;5113711;28;20455;-57
2022/05/23 09:03:45;;;;;;;0.60;0.60;;;;;;;23.86;46.88;94762.75;5113679;28;20455;-57
2022/05/23 09:06:19;;;;;;;0.50;0.37;;;;;;;23.30;47.88;94665.38;5113510;28;20471;-56
2022/05/23 09:08:52;;;;;;;0.40;0.30;;;;;;;23.04;50.19;94606.69;5113178;28;20435;-56
2022/05/23 09:11:29;;;;;;;1.10;0.80;;;;;;;24.04;50.54;94747.53;5113641;28;20435;-56
2022/05/23 09:13:58;;;;;;;0.40;0.30;;;;;;;24.06;48.43;94758.78;5114007;28;20439;-55
2022/05/23 09:16:32;;;;;;;0.30;0.30;;;;;;;24.31;47.87;94767.25;5113579;28;20933;-55
2022/05/23 09:19:04;;;;;;;0.40;0.20;;;;;;;20.30;47.38;94206.44;5112986;28;20511;-55
2022/05/23 09:24:19;;;;;;;0.40;0.30;;;;;;;24.11;47.94;94769.31;5113542;28;20424;-55
2022/05/23 09:26:48;;;;;;;0.40;0.30;;;;;;;23.74;48.24;94730.50;5113179;28;20546;-55
2022/05/23 09:29:16;;;;;;;0.40;0.30;;;;;;;23.97;50.11;94761.78;5113203;28;20666;-55
2022/05/23 09:31:53;;;;;;;0.50;0.40;;;;;;;23.75;52.19;94734.78;5113545;28;20506;-55
2022/05/23 09:34:30;;;;;;;0.40;0.30;;;;;;;24.06;55.01;94766.91;5113536;28;20419;-55
2022/05/23 09:37:00;;;;;;;0.40;0.33;;;;;;;24.06;56.57;94766.91;5113330;28;20508;-55
2022/05/23 09:39:30;;;;;;;1.53;0.50;;;;;;;23.96;56.55;94771.03;5113211;28;20477;-54
2022/05/23 09:47:46;;;;;;;0.70;0.70;;;;;;;23.71;59.69;94771.84;5112929;28;20528;-54
2022/05/23 09:50:30;;;;;;;0.40;0.30;;;;;;;23.43;60.69;94761.38;5112967;28;20419;-54
2022/05/23 09:53:15;;;;;;;0.40;0.30;;;;;;;23.49;61.30;94759.94;5112789;28;20434;-54
2022/05/23 09:55:45;;;;;;;0.53;0.30;;;;;;;23.55;62.87;94758.50;5112745;28;20427;-54
2022/05/23 09:58:23;;;;;;;0.40;0.30;;;;;;;23.47;65.48;94750.63;5112719;28;20420;-54
2022/05/23 10:01:04;;;;;;;1.03;0.53;;;;;;;23.18;71.43;94754.78;5112821;28;20484;-54
2022/05/23 10:03:37;;;;;;;0.73;0.70;;;;;;;23.32;68.14;94744.19;5112773;28;20430;-54
2022/05/23 10:06:09;;;;;;;0.40;0.30;;;;;;;23.57;65.29;94750.78;5112606;28;20816;-54
2022/05/23 10:08:39;;;;;;;0.70;0.70;;;;;;;23.65;63.80;94746.25;5112150;28;20447;-54
2022/05/23 10:11:21;;;;;;;0.70;0.40;;;;;;;22.02;67.58;94467.38;5112021;28;20436;-54
2022/05/23 10:13:55;;;;;;;0.40;0.30;;;;;;;23.63;70.56;94716.09;5112196;28;20435;-54
2022/05/23 10:16:29;;;;;;;0.60;0.40;;;;;;;24.18;66.77;94731.50;5112185;28;20473;-54
2022/05/23 10:19:02;;;;;;;0.40;0.40;;;;;;;24.41;65.04;94728.66;5112580;28;20485;-54
2022/05/23 10:21:34;;;;;;;0.50;0.50;;;;;;;24.53;64.87;94718.34;5112635;28;20844;-54
2022/05/23 10:24:07;;;;;;;0.47;0.37;;;;;;;24.85;62.66;94642.78;5112489;28;20502;-56
2022/05/23 10:26:43;;;;;;;0.40;0.40;;;;;;;25.36;61.02;94629.16;5112177;28;20488;-57
2022/05/23 10:29:18;;;;;;;0.50;0.40;;;;;;;26.21;57.75;94728.13;5112274;28;20427;-57
2022/05/23 10:31:52;;;;;;;1.53;0.60;;;;;;;25.94;52.34;94655.44;5112560;28;20446;-57
2022/05/23 10:34:39;;;;;;;3.60;0.43;;;;;;;26.71;49.22;94717.41;5112285;28;20924;-57
2022/05/23 10:37:10;;;;;;;0.67;0.30;;;;;;;27.59;46.70;94704.63;5112114;28;20964;-57
2022/05/23 10:42:37;;;;;;;0.40;0.30;;;;;;;28.86;41.88;94698.66;5111980;28;20490;-56
2022/05/23 10:45:18;;;;;;;0.40;0.30;;;;;;;28.71;42.77;94697.22;5111929;28;20431;-56
2022/05/23 10:48:01;;;;;;;0.50;0.50;;;;;;;28.66;40.74;94678.56;5111794;28;20463;-56
2022/05/23 10:50:37;;;;;;;0.60;0.60;;;;;;;27.89;40.90;94655.13;5111735;28;20467;-56
2022/05/23 10:53:13;;;;;;;0.50;0.30;;;;;;;28.26;43.27;94709.09;5112074;28;20424;-56
2022/05/23 10:55:50;;;;;;;0.40;0.30;;;;;;;27.39;44.81;94702.72;5112006;28;20455;-56
2022/05/23 10:58:30;;;;;;;0.40;0.30;;;;;;;27.15;44.34;94652.56;5111677;28;20462;-56
2022/05/23 11:01:04;;;;;;;0.40;0.40;;;;;;;27.33;43.41;94687.91;5111480;28;20925;-58
2022/05/23 11:03:45;;;;;;;0.40;0.30;;;;;;;27.32;47.07;94692.59;5111759;28;20419;-57
2022/05/23 11:06:24;;;;;;;0.40;0.30;;;;;;;26.92;45.07;94682.88;5112004;28;20462;-57
2022/05/23 11:09:07;;;;;;;0.40;0.30;;;;;;;27.30;44.43;94684.03;5111987;28;20554;-57
2022/05/23 11:11:56;;;;;;;0.50;0.30;;;;;;;27.98;41.95;94677.25;5111791;28;20466;-57
2022/05/23 11:14:38;;;;;;;0.40;0.30;;;;;;;28.10;42.79;94665.97;5111609;28;20461;-57
2022/05/23 11:17:25;;;;;;;0.47;0.47;;;;;;;28.21;41.28;94669.41;5111327;28;20467;-57
2022/05/23 11:20:10;;;;;;;4.90;0.60;;;;;;;28.07;43.17;94669.50;5111775;28;20415;-57
2022/05/23 11:22:46;;;;;;;0.30;0.20;;;;;;;28.52;41.20;94664.19;5111517;28;20538;-57
2022/05/23 11:25:25;;;;;;;0.50;0.30;;;;;;;28.51;41.95;94655.25;5111393;28;20851;-57
2022/05/23 11:33:43;;;;;;;0.60;0.60;;;;;;;28.30;41.52;94645.25;5111397;28;20431;-57
2022/05/23 11:36:23;;;;;;;0.63;0.63;;;;;;;28.10;41.47;94651.56;5111322;28;20526;-57
2022/05/23 11:38:54;;;;;;;0.40;0.30;;;;;;;27.99;43.80;94653.53;5111430;28;20455;-57
2022/05/23 11:41:32;;;;;;;0.50;0.50;;;;;;;27.85;42.73;94635.31;5112529;28;20431;-57
2022/05/23 11:44:02;;;;;;;0.40;0.30;;;;;;;27.83;44.90;94653.22;5114773;28;20949;-57
2022/05/23 11:47:06;;;;;;;0.47;0.30;;;;;;;27.89;49.15;94635.28;5115333;28;20424;-57
2022/05/23 11:49:41;;;;;;;0.50;0.50;;;;;;;27.30;48.10;94607.81;5114872;28;20932;-57
2022/05/23 11:52:23;;;;;;;0.50;0.40;;;;;;;27.75;48.46;94652.47;5114689;28;20427;-57
2022/05/23 11:54:53;;;;;;;0.73;0.50;;;;;;;27.34;49.31;94622.22;5115066;28;20431;-57
2022/05/23 11:57:40;;;;;;;0.40;0.30;;;;;;;27.80;49.29;94649.34;5115206;28;20482;-58
2022/05/23 12:00:32;;;;;;;0.40;0.30;;;;;;;28.20;49.34;94653.47;5115006;28;20451;-57
2022/05/23 12:03:13;;;;;;;0.40;0.30;;;;;;;28.24;47.10;94648.75;5114874;28;20504;-57
2022/05/23 12:05:43;;;;;;;0.40;0.30;;;;;;;28.54;45.50;94643.50;5114942;28;20431;-57
2022/05/23 12:08:29;;;;;;;0.40;0.30;;;;;;;29.30;43.34;94626.19;5115113;28;20499;-57
2022/05/23 12:11:02;;;;;;;10.57;0.50;;;;;;;29.76;38.71;94601.13;5114656;28;20423;-57
2022/05/23 12:13:41;;;;;;;0.30;0.30;;;;;;;30.76;37.43;94613.81;5115043;28;20431;-56
2022/05/23 12:16:36;;;;;;;0.40;0.30;;;;;;;31.12;34.57;94611.31;5114678;28;20915;-54
2022/05/23 12:19:30;;;;;;;0.40;0.30;;;;;;;30.84;36.05;94609.00;5114438;28;20798;-53
2022/05/23 12:22:19;;;;;;;0.30;0.30;;;;;;;30.01;36.62;94607.06;5114434;28;20427;-52
2022/05/23 12:25:16;;;;;;;0.43;0.43;;;;;;;29.89;36.09;94597.47;5114380;28;20933;-52
2022/05/23 12:28:07;;;;;;;0.40;0.33;;;;;;;31.32;35.15;94584.72;5114488;28;20451;-52
2022/05/23 12:30:41;;;;;;;0.40;0.40;;;;;;;32.04;35.42;94590.41;5114411;28;21003;-53
2022/05/23 12:33:21;;;;;;;0.40;0.30;;;;;;;32.22;33.06;94588.06;5114699;28;20526;-52
2022/05/23 12:35:55;;;;;;;0.40;0.30;;;;;;;32.19;30.83;94580.69;5113642;28;20502;-52
2022/05/23 12:38:37;;;;;;;0.50;0.40;;;;;;;31.91;32.23;94598.50;5114502;28;20887;-52
2022/05/23 12:41:17;;;;;;;0.43;0.37;;;;;;;31.45;33.34;94578.69;5114005;28;20991;-52
2022/05/23 12:44:08;;;;;;;0.40;0.30;;;;;;;30.62;35.67;94585.91;5113518;28;20427;-52
2022/05/23 12:46:49;;;;;;;0.67;0.60;;;;;;;29.99;35.64;94492.72;5069897;28;20470;-52
2022/05/23 12:49:38;;;;;;;0.40;0.40;;;;;;;29.82;37.77;94596.78;5114542;28;20471;-53
2022/05/23 12:52:20;;;;;;;0.50;0.50;;;;;;;29.19;37.91;94560.00;5113463;28;20479;-52
2022/05/23 12:55:06;;;;;;;0.50;0.37;;;;;;;29.69;36.59;94593.78;5113623;28;20795;-52